PASD Airport Information

Runway Information
Runway 13 Length 4000 ft width 150 ft
Elevation 21 ft Threshold 0 ft Heading 149
Runway 31 Length 4000 ft Width 150 ft
Elevation 21 ft Threshold 0 ft Heading 329
Airport Frequencies
Type AWOS Name AWOS 3 Frequency 134.85 MHZ
Type CLD Name CLNC DEL Frequency 122.3 MHZ
Type CNTR Name ANCHORAGE Frequency 125.35 MHZ
Type CTAF Name CTAF Frequency 122.3 MHZ
Type FSS Name COLD BAY R Frequency 122.3 MHZ
Type UNIC Name UNICOM Frequency 122.8 MHZ
Airport Navaids
Type NDB-DME Name Borland Frequency 390 KHZ
Airport Weather Information & NOTAM
ADDS - METARS form results

(1250 UTC 15 August 2020)
Data provider http://aviationweather.gov/metar/data/
 
METAR text: PASD 151210Z AUTO 36005KT 10SM BKN024 BKN028 12/10 A3011 RMK AO2 PNO $
Conditions at: PASD (SAND POINT , AK, US) observed 1210 UTC 15 August 2020
Temperature: 12.0°C (54°F)
Dewpoint: 10.0°C (50°F) [RH = 88%]
Pressure (altimeter): 30.11 inches Hg (1019.7 mb)
Winds: from the N (360 degrees) at 6 MPH (5 knots; 2.6 m/s)
Visibility: 10 or more miles (16+ km)
Ceiling: 2400 feet AGL
Clouds: broken clouds at 2400 feet AGL
broken clouds at 2800 feet AGL
Weather:
SOME DATA ABOVE MAY BE INACCURATE!!!
"$" is an indication the sensor requires maintenance

METAR text: PASD 151156Z AUTO 32009KT 10SM SCT024 13/10 A3011 RMK AO2 SLP197 6//// 7//// T01280100 10150 20122 50001 PNO $
Conditions at: PASD (SAND POINT , AK, US) observed 1156 UTC 15 August 2020
Temperature: 12.8°C (55°F)
Dewpoint: 10.0°C (50°F) [RH = 83%]
Pressure (altimeter): 30.11 inches Hg (1019.7 mb)
[Sea-level pressure: 1019.7 mb]
Winds: from the NW (320 degrees) at 10 MPH (9 knots; 4.6 m/s)
Visibility: 10 or more miles (16+ km)
Ceiling: at least 12,000 feet AGL
Clouds: scattered clouds at 2400 feet AGL
Weather:
SOME DATA ABOVE MAY BE INACCURATE!!!
"$" is an indication the sensor requires maintenance

Forecast for: PASD (SAND POINT , AK, US)
Text: PASD 151120Z 1512/1612 30010KT P6SM SKC
Forecast period: 1200 to 1900 UTC 15 August 2020
Forecast type: FROM: standard forecast or significant change
Winds: from the WNW (300 degrees) at 12 MPH (10 knots; 5.1 m/s)
Visibility: 6 or more miles (10+ km)
Clouds: clear skies
Weather: no significant weather forecast for this period
Text: FM151900 34015G25KT P6SM SKC
Forecast period: 1900 UTC 15 August 2020 to 0900 UTC 16 August 2020
Forecast type: FROM: standard forecast or significant change
Winds: from the NNW (340 degrees) at 17 MPH (15 knots; 7.7 m/s)
gusting to 29 MPH (25 knots; 12.9 m/s)
Visibility: 6 or more miles (10+ km)
Clouds: clear skies
Weather: no significant weather forecast for this period
Text: FM160900 34008KT P6SM SKC AMD LTD TO CLD VIS AND WIND
Forecast period: 0900 to 1200 UTC 16 August 2020
Forecast type: FROM: standard forecast or significant change
Winds: from the NNW (340 degrees) at 9 MPH (8 knots; 4.1 m/s)
Visibility: 6 or more miles (10+ km)
Clouds: clear skies
Weather: no significant weather forecast for this period